Time;durP1;ratioP1;P1;durP2;ratioP2;P2;SDS_P1;SDS_P2;PMS_P1;PMS_P2;Temp;Humidity;BMP_temperature;BMP_pressure;BME280_temperature;BME280_humidity;BME280_pressure;Samples;Min_cycle;Max_cycle;Signal;HPM_P1;HPM_P2
2022/09/11 00:02:11;;;;;;;;;;;;;;;5.94;66.41;100666.53;5052568;28;20500;-75
2022/09/11 00:04:38;;;;;;;;;;;;;;;5.86;66.94;100664.47;5052763;28;20027;-76
2022/09/11 00:07:05;;;;;;;;;;;;;;;5.80;67.28;100662.53;5052452;28;19999;-76
2022/09/11 00:09:32;;;;;;;;;;;;;;;5.74;66.48;100658.03;5037946;28;19924;-77
2022/09/11 00:11:59;;;;;;;;;;;;;;;5.73;66.53;100658.84;5056397;28;19959;-77
2022/09/11 00:14:27;;;;;;;;;;;;;;;5.69;66.43;100656.97;5056016;28;19925;-77
2022/09/11 00:16:54;;;;;;;;;;;;;;;5.70;67.25;100657.84;5056083;28;19924;-77
2022/09/11 00:19:21;;;;;;;;;;;;;;;5.73;66.64;100663.16;5056103;28;19932;-78
2022/09/11 00:21:50;;;;;;;;;;;;;;;5.67;66.40;100665.53;5056018;28;19974;-77
2022/09/11 00:24:17;;;;;;;;;;;;;;;5.63;66.68;100666.25;5055940;28;20399;-77
2022/09/11 00:26:46;;;;;;;;;;;;;;;5.58;67.05;100666.06;5055972;28;20031;-77
2022/09/11 00:29:13;;;;;;;;;;;;;;;5.61;67.22;100657.53;5054777;28;19925;-77
2022/09/11 00:31:40;;;;;;;;;;;;;;;5.58;67.18;100653.13;5055859;28;19967;-77
2022/09/11 00:34:07;;;;;;;;;;;;;;;5.63;67.17;100656.75;5055746;28;20039;-77
2022/09/11 00:36:38;;;;;;;;;;;;;;;5.67;67.03;100656.03;5055715;28;19925;-78
2022/09/11 00:39:05;;;;;;;;;;;;;;;5.67;66.83;100653.44;5071428;28;19925;-77
2022/09/11 00:41:35;;;;;;;;;;;;;;;5.58;67.13;100653.13;5056270;28;19968;-77
2022/09/11 00:44:03;;;;;;;;;;;;;;;5.50;67.05;100658.00;5055592;28;19924;-76
2022/09/11 00:46:33;;;;;;;;;;;;;;;5.51;66.97;100661.50;5037763;28;19932;-77
2022/09/11 00:49:02;;;;;;;;;;;;;;;5.44;67.16;100655.22;5055648;28;19924;-77
2022/09/11 00:51:32;;;;;;;;;;;;;;;5.41;67.09;100657.69;5055114;28;19924;-77
2022/09/11 00:54:02;;;;;;;;;;;;;;;5.41;67.55;100651.63;5044862;28;19925;-77
2022/09/11 00:56:30;;;;;;;;;;;;;;;5.41;67.46;100654.22;5035380;28;20428;-77
2022/09/11 00:58:58;;;;;;;;;;;;;;;5.40;67.55;100649.84;5035464;28;20031;-76
2022/09/11 01:01:25;;;;;;;;;;;;;;;5.36;67.75;100654.06;5034040;28;19925;-77
2022/09/11 01:03:52;;;;;;;;;;;;;;;5.34;67.89;100648.81;5018106;28;19925;-77
2022/09/11 01:06:19;;;;;;;;;;;;;;;5.29;67.73;100649.44;5035412;28;19967;-77
2022/09/11 01:08:46;;;;;;;;;;;;;;;5.25;67.96;100645.88;5035833;28;20118;-75
2022/09/11 01:11:20;;;;;;;;;;;;;;;5.21;67.40;100644.00;5035410;28;20020;-77
2022/09/11 01:13:47;;;;;;;;;;;;;;;5.18;67.93;100653.34;5035349;28;19929;-78
2022/09/11 01:16:28;;;;;;;;;;;;;;;5.16;67.46;100652.41;5035074;28;20415;-77
2022/09/11 01:19:12;;;;;;;;;;;;;;;5.13;68.31;100654.06;5034967;28;20408;-76
2022/09/11 01:21:39;;;;;;;;;;;;;;;5.12;67.92;100660.06;5035818;28;19975;-76
2022/09/11 01:24:45;;;;;;;;;;;;;;;5.10;67.70;100661.72;5035318;28;20012;-76
2022/09/11 01:27:30;;;;;;;;;;;;;;;5.12;67.82;100662.66;4957700;28;19926;-77
2022/09/11 01:30:02;;;;;;;;;;;;;;;5.22;67.85;100653.50;4974072;28;20505;-76
2022/09/11 01:32:35;;;;;;;;;;;;;;;5.25;67.93;100651.06;5026081;28;19967;-77
2022/09/11 01:35:02;;;;;;;;;;;;;;;5.27;67.43;100654.59;5063848;28;19932;-77
2022/09/11 01:37:38;;;;;;;;;;;;;;;5.27;68.00;100652.00;5038818;28;19931;-76
2022/09/11 01:40:11;;;;;;;;;;;;;;;5.22;68.17;100652.63;5054613;28;19972;-78
2022/09/11 01:42:42;;;;;;;;;;;;;;;5.18;68.14;100651.63;5053350;28;20027;-79
2022/09/11 01:45:13;;;;;;;;;;;;;;;5.16;67.62;100642.03;5037163;28;19924;-76
2022/09/11 01:47:43;;;;;;;;;;;;;;;5.15;67.61;100658.44;5053756;28;19958;-75
2022/09/11 01:50:12;;;;;;;;;;;;;;;5.11;68.11;100645.34;5036627;28;19925;-76
2022/09/11 01:52:44;;;;;;;;;;;;;;;5.10;68.28;100646.19;5033339;28;20337;-79
2022/09/11 01:55:14;;;;;;;;;;;;;;;5.11;68.61;100640.16;5034500;28;20420;-78
2022/09/11 01:57:43;;;;;;;;;;;;;;;5.05;68.16;100639.06;5017198;28;19960;-79
2022/09/11 02:00:12;;;;;;;;;;;;;;;4.99;68.79;100655.25;5033173;28;19925;-77
2022/09/11 02:02:59;;;;;;;;;;;;;;;4.97;68.52;100645.63;5017039;28;20027;-77
2022/09/11 02:05:31;;;;;;;;;;;;;;;4.94;68.49;100646.41;5032991;28;19932;-77
2022/09/11 02:08:19;;;;;;;;;;;;;;;4.88;68.77;100651.34;5017135;28;19925;-77
2022/09/11 02:10:53;;;;;;;;;;;;;;;4.85;68.45;100646.06;5033058;28;19929;-77
2022/09/11 02:13:19;;;;;;;;;;;;;;;4.78;68.47;100641.47;5033967;28;19948;-79
2022/09/11 02:15:49;;;;;;;;;;;;;;;4.76;68.30;100645.72;5034415;28;19933;-78
2022/09/11 02:18:23;;;;;;;;;;;;;;;4.61;68.31;100617.53;5016466;28;19998;-78
2022/09/11 02:20:52;;;;;;;;;;;;;;;4.70;68.57;100642.03;5034387;28;19932;-78
2022/09/11 02:23:19;;;;;;;;;;;;;;;4.68;68.24;100645.41;5016186;28;19975;-77
2022/09/11 02:25:47;;;;;;;;;;;;;;;4.67;68.30;100647.09;5033940;28;20389;-78
2022/09/11 02:28:14;;;;;;;;;;;;;;;4.67;68.07;100649.69;5032826;28;19925;-76
2022/09/11 02:30:42;;;;;;;;;;;;;;;4.69;68.56;100649.78;5015851;28;19932;-76
2022/09/11 02:33:27;;;;;;;;;;;;;;;4.69;68.31;100647.19;5032999;28;19924;-77
2022/09/11 02:36:01;;;;;;;;;;;;;;;4.68;68.39;100643.69;5028953;28;19958;-77
2022/09/11 02:38:34;;;;;;;;;;;;;;;4.67;68.26;100651.41;5036060;28;20396;-77
2022/09/11 02:41:12;;;;;;;;;;;;;;;4.68;68.91;100650.56;5053925;28;19925;-76
2022/09/11 02:43:43;;;;;;;;;;;;;;;4.71;68.60;100651.59;5036117;28;19925;-78
2022/09/11 02:46:13;;;;;;;;;;;;;;;4.77;69.01;100644.88;5036478;28;20023;-75
2022/09/11 02:48:59;;;;;;;;;;;;;;;4.80;68.37;100643.31;5052466;28;19925;-76
2022/09/11 02:51:38;;;;;;;;;;;;;;;4.83;68.44;100647.72;5059299;28;20016;-75
2022/09/11 02:54:13;;;;;;;;;;;;;;;4.86;68.80;100648.72;5071570;28;19979;-78
2022/09/11 02:56:50;;;;;;;;;;;;;;;4.91;68.43;100641.13;5070946;28;19932;-77
2022/09/11 02:59:33;;;;;;;;;;;;;;;4.97;68.91;100637.88;5060600;28;20376;-77
2022/09/11 03:02:01;;;;;;;;;;;;;;;4.99;68.83;100642.31;5052180;28;20023;-76
2022/09/11 03:04:30;;;;;;;;;;;;;;;4.99;68.55;100633.63;5035046;28;19978;-76
2022/09/11 03:06:57;;;;;;;;;;;;;;;5.02;69.22;100634.66;5051898;28;20031;-78
2022/09/11 03:09:24;;;;;;;;;;;;;;;5.05;68.67;100637.34;5035120;28;19924;-78
2022/09/11 03:11:57;;;;;;;;;;;;;;;5.12;68.61;100626.41;5068827;28;19929;-77
2022/09/11 03:14:24;;;;;;;;;;;;;;;5.18;68.35;100625.72;5051321;28;20006;-78
2022/09/11 03:16:51;;;;;;;;;;;;;;;5.28;68.18;100629.56;5052888;28;19970;-76
2022/09/11 03:19:18;;;;;;;;;;;;;;;5.34;68.28;100617.72;5068578;28;19924;-76
2022/09/11 03:21:45;;;;;;;;;;;;;;;5.42;68.44;100617.09;5051619;28;19925;-75
2022/09/11 03:24:14;;;;;;;;;;;;;;;5.52;68.21;100614.00;5051547;28;20356;-77
2022/09/11 03:26:42;;;;;;;;;;;;;;;5.66;68.41;100617.13;5068002;28;19925;-76
2022/09/11 03:29:09;;;;;;;;;;;;;;;5.79;67.44;100616.72;5036807;28;19924;-78
2022/09/11 03:31:36;;;;;;;;;;;;;;;5.87;67.65;100619.53;5051583;28;19925;-77
2022/09/11 03:34:06;;;;;;;;;;;;;;;5.95;67.53;100618.13;5051111;28;19925;-76
2022/09/11 03:36:33;;;;;;;;;;;;;;;6.06;66.99;100618.50;5052576;28;19924;-78
2022/09/11 03:39:00;;;;;;;;;;;;;;;6.21;67.16;100621.59;5059540;28;19924;-77
2022/09/11 03:41:28;;;;;;;;;;;;;;;6.33;66.29;100615.94;5034670;28;20073;-78
2022/09/11 03:43:55;;;;;;;;;;;;;;;6.47;66.45;100613.78;5055744;28;19925;-77
2022/09/11 03:46:23;;;;;;;;;;;;;;;6.59;66.12;100621.09;5055231;28;19971;-79
2022/09/11 03:48:51;;;;;;;;;;;;;;;6.68;66.07;100614.47;5057526;28;19924;-78
2022/09/11 03:51:19;;;;;;;;;;;;;;;6.69;65.92;100608.44;5055445;28;19924;-78
2022/09/11 03:53:47;;;;;;;;;;;;;;;6.72;65.90;100607.66;5038453;28;19931;-75
2022/09/11 03:56:14;;;;;;;;;;;;;;;6.63;66.31;100616.03;5038652;28;20403;-77
2022/09/11 03:58:46;;;;;;;;;;;;;;;6.70;65.88;100623.19;5054363;28;19931;-77
2022/09/11 04:01:14;;;;;;;;;;;;;;;6.89;65.86;100616.84;5046706;28;19931;-76
2022/09/11 04:03:41;;;;;;;;;;;;;;;6.98;65.76;100619.69;5038447;28;19931;-77
2022/09/11 04:06:15;;;;;;;;;;;;;;;7.11;65.24;100614.88;5038779;28;19925;-78
2022/09/11 04:08:42;;;;;;;;;;;;;;;7.24;65.50;100617.00;5055937;28;20381;-77
2022/09/11 04:11:10;;;;;;;;;;;;;;;7.38;64.72;100614.81;5036879;28;19925;-76
2022/09/11 04:13:38;;;;;;;;;;;;;;;7.47;64.82;100609.84;5054818;28;19931;-75
2022/09/11 04:16:12;;;;;;;;;;;;;;;7.66;64.28;100612.94;5038530;28;19929;-77
2022/09/11 04:18:44;;;;;;;;;;;;;;;7.92;63.89;100613.66;5054142;28;20383;-77
2022/09/11 04:21:13;;;;;;;;;;;;;;;8.17;63.46;100622.94;5038266;28;20016;-79
2022/09/11 04:23:41;;;;;;;;;;;;;;;8.36;62.72;100619.09;5054622;28;19939;-78
2022/09/11 04:26:19;;;;;;;;;;;;;;;8.48;62.51;100615.94;5038428;28;20416;-77
2022/09/11 04:28:50;;;;;;;;;;;;;;;8.50;62.18;100622.06;5051597;28;19979;-78
2022/09/11 04:31:19;;;;;;;;;;;;;;;8.49;62.42;100617.69;5055307;28;19925;-78
2022/09/11 04:33:46;;;;;;;;;;;;;;;8.58;62.50;100628.31;5054919;28;19978;-78
2022/09/11 04:36:18;;;;;;;;;;;;;;;8.74;62.22;100617.44;5036511;28;19963;-79
2022/09/11 04:38:47;;;;;;;;;;;;;;;8.91;61.43;100610.00;5054541;28;19964;-78
2022/09/11 04:41:15;;;;;;;;;;;;;;;9.18;61.30;100604.50;5037986;28;19924;-76
2022/09/11 04:43:43;;;;;;;;;;;;;;;9.33;61.10;100605.63;5034806;28;19925;-80
2022/09/11 04:46:13;;;;;;;;;;;;;;;9.44;60.75;100611.94;5026606;28;19929;-77
2022/09/11 04:48:42;;;;;;;;;;;;;;;9.57;60.74;100613.97;5044345;28;19982;-77
2022/09/11 04:51:09;;;;;;;;;;;;;;;9.79;60.12;100602.19;5046885;28;19925;-79
2022/09/11 04:53:36;;;;;;;;;;;;;;;10.02;59.95;100607.84;5046655;28;19924;-78
2022/09/11 04:56:05;;;;;;;;;;;;;;;10.02;59.32;100607.84;5061594;28;19971;-78
2022/09/11 04:58:39;;;;;;;;;;;;;;;10.07;59.20;100594.88;5054987;28;20374;-79
2022/09/11 05:01:12;;;;;;;;;;;;;;;10.18;59.38;100608.09;5042813;28;19925;-79
2022/09/11 05:03:42;;;;;;;;;;;;;;;10.24;58.89;100611.69;5044947;28;20023;-80
2022/09/11 05:06:11;;;;;;;;;;;;;;;10.41;58.53;100598.03;5042511;28;19955;-79
2022/09/11 05:08:37;;;;;;;;;;;;;;;10.58;58.56;100596.59;5025832;28;19925;-79
2022/09/11 05:11:05;;;;;;;;;;;;;;;10.71;58.57;100600.28;5045227;28;20304;-79
2022/09/11 05:13:33;;;;;;;;;;;;;;;10.86;57.97;100595.25;5048055;28;19925;-78
2022/09/11 05:16:03;;;;;;;;;;;;;;;11.03;58.04;100594.56;5046696;28;19971;-76
2022/09/11 05:18:31;;;;;;;;;;;;;;;11.16;57.92;100590.38;5035956;28;19931;-79
2022/09/11 05:21:04;;;;;;;;;;;;;;;11.30;57.23;100593.19;5034570;28;19924;-78
2022/09/11 05:23:33;;;;;;;;;;;;;;;11.28;57.42;100593.16;5035540;28;19979;-78
2022/09/11 05:26:02;;;;;;;;;;;;;;;11.31;57.12;100589.69;5019343;28;20307;-76
2022/09/11 05:28:31;;;;;;;;;;;;;;;11.47;56.80;100589.03;5036262;28;19925;-77
2022/09/11 05:30:58;;;;;;;;;;;;;;;11.56;56.44;100590.88;5034152;28;19995;-78
2022/09/11 05:33:26;;;;;;;;;;;;;;;11.66;56.01;100593.59;5042164;28;20016;-77
2022/09/11 05:35:54;;;;;;;;;;;;;;;11.79;55.71;100589.38;5039057;28;19931;-80
2022/09/11 05:38:25;;;;;;;;;;;;;;;11.92;55.85;100592.16;5037090;28;19925;-78
2022/09/11 05:40:52;;;;;;;;;;;;;;;12.01;55.54;100587.88;5052042;28;19964;-80
2022/09/11 05:43:21;;;;;;;;;;;;;;;12.17;55.43;100595.84;5038827;28;19925;-77
2022/09/11 05:45:55;;;;;;;;;;;;;;;12.27;55.29;100593.31;5053422;28;19994;-76
2022/09/11 05:48:32;;;;;;;;;;;;;;;12.28;55.04;100584.59;5070233;28;20304;-80
2022/09/11 05:51:01;;;;;;;;;;;;;;;12.32;55.09;100593.34;5045924;28;20011;-79
2022/09/11 05:53:32;;;;;;;;;;;;;;;12.37;54.87;100591.66;5032924;28;19925;-80
2022/09/11 05:56:08;;;;;;;;;;;;;;;12.42;54.89;100589.94;5044324;28;19924;-78
2022/09/11 05:58:35;;;;;;;;;;;;;;;12.47;54.37;100582.97;5041927;28;20038;-78
2022/09/11 06:01:04;;;;;;;;;;;;;;;12.45;54.41;100584.75;5047801;28;19925;-78
2022/09/11 06:03:33;;;;;;;;;;;;;;;12.48;54.28;100590.00;5025302;28;19925;-78
2022/09/11 06:06:01;;;;;;;;;;;;;;;12.56;54.19;100576.06;5044163;28;20407;-78
2022/09/11 06:08:29;;;;;;;;;;;;;;;12.69;54.01;100572.63;5025495;28;19925;-78
2022/09/11 06:10:57;;;;;;;;;;;;;;;12.73;53.60;100579.66;5026948;28;19959;-79
2022/09/11 06:13:25;;;;;;;;;;;;;;;12.82;53.52;100574.50;5028422;28;19960;-78
2022/09/11 06:15:52;;;;;;;;;;;;;;;12.94;53.29;100576.28;5052783;28;19925;-79
2022/09/11 06:18:19;;;;;;;;;;;;;;;12.96;53.16;100573.69;5019842;28;19933;-78
2022/09/11 06:21:00;;;;;;;;;;;;;;;13.01;53.12;100571.94;5036140;28;19931;-79
2022/09/11 06:23:34;;;;;;;;;;;;;;;13.03;52.93;100578.94;5035988;28;19924;-76
2022/09/11 06:26:02;;;;;;;;;;;;;;;13.03;52.61;100571.06;5044846;28;20401;-79
2022/09/11 06:28:31;;;;;;;;;;;;;;;13.13;52.91;100572.00;5032325;28;20358;-78
2022/09/11 06:31:01;;;;;;;;;;;;;;;13.26;52.23;100576.41;5042273;28;20286;-79
2022/09/11 06:33:32;;;;;;;;;;;;;;;13.33;52.17;100577.34;5026322;28;19964;-79
2022/09/11 06:36:00;;;;;;;;;;;;;;;13.40;51.75;100575.63;5054742;28;19928;-78
2022/09/11 06:38:28;;;;;;;;;;;;;;;13.38;51.92;100570.38;5045118;28;19929;-81
2022/09/11 06:40:55;;;;;;;;;;;;;;;13.41;52.06;100573.00;5007982;28;20304;-81
2022/09/11 06:43:22;;;;;;;;;;;;;;;13.51;51.93;100576.56;5042792;28;19925;-78
2022/09/11 06:45:49;;;;;;;;;;;;;;;13.65;51.81;100569.56;5027814;28;19963;-81
2022/09/11 06:48:18;;;;;;;;;;;;;;;13.68;51.60;100573.94;5032016;28;19925;-81
2022/09/11 06:50:45;;;;;;;;;;;;;;;13.77;51.32;100578.34;5015813;28;19925;-77
2022/09/11 06:53:13;;;;;;;;;;;;;;;13.76;51.16;100574.84;5034611;28;20364;-76
2022/09/11 06:55:47;;;;;;;;;;;;;;;13.69;50.89;100570.47;5019139;28;20388;-80
2022/09/11 06:58:15;;;;;;;;;;;;;;;13.79;51.18;100563.44;5034450;28;19925;-79
2022/09/11 07:00:42;;;;;;;;;;;;;;;13.97;50.83;100571.38;5018866;28;19932;-78
2022/09/11 07:03:11;;;;;;;;;;;;;;;14.13;50.69;100562.63;5032459;28;19925;-77
2022/09/11 07:05:44;;;;;;;;;;;;;;;14.20;50.49;100565.25;5032330;28;19924;-80
2022/09/11 07:08:12;;;;;;;;;;;;;;;14.29;50.50;100557.34;5039630;28;19925;-77
2022/09/11 07:10:42;;;;;;;;;;;;;;;14.43;50.36;100560.88;5042353;28;19947;-77
2022/09/11 07:13:09;;;;;;;;;;;;;;;14.48;50.39;100564.34;5037207;28;20406;-77
2022/09/11 07:15:37;;;;;;;;;;;;;;;14.58;49.87;100553.84;5021671;28;19925;-78
2022/09/11 07:18:07;;;;;;;;;;;;;;;14.69;49.75;100552.06;5025544;28;20019;-78
2022/09/11 07:20:34;;;;;;;;;;;;;;;14.87;49.27;100554.66;5037436;28;20353;-78
2022/09/11 07:23:02;;;;;;;;;;;;;;;14.92;48.95;100546.72;5047262;28;19931;-81
2022/09/11 07:25:30;;;;;;;;;;;;;;;15.00;48.83;100546.72;5052591;28;19935;-76
2022/09/11 07:27:58;;;;;;;;;;;;;;;15.01;48.41;100544.06;5025296;28;19925;-80
2022/09/11 07:30:25;;;;;;;;;;;;;;;14.94;48.05;100532.69;5045783;28;20292;-80
2022/09/11 07:32:55;;;;;;;;;;;;;;;15.02;47.76;100532.66;5042388;28;20403;-78
2022/09/11 07:35:22;;;;;;;;;;;;;;;15.08;47.77;100531.78;5043438;28;19939;-78
2022/09/11 07:37:51;;;;;;;;;;;;;;;15.08;47.23;100532.66;5016888;28;19925;-77
2022/09/11 07:40:23;;;;;;;;;;;;;;;15.10;47.26;100530.88;5040338;28;19932;-78
2022/09/11 07:42:50;;;;;;;;;;;;;;;15.09;46.47;100526.50;5052435;28;19975;-76
2022/09/11 07:45:20;;;;;;;;;;;;;;;14.99;46.58;100519.50;5048512;28;19929;-78
2022/09/11 07:47:49;;;;;;;;;;;;;;;15.12;46.22;100515.06;5051844;28;19960;-78
2022/09/11 07:50:16;;;;;;;;;;;;;;;15.13;46.63;100511.56;5052713;28;19930;-79
2022/09/11 07:52:47;;;;;;;;;;;;;;;15.23;46.10;100504.50;5047792;28;19936;-79
2022/09/11 07:55:17;;;;;;;;;;;;;;;15.27;46.35;100508.84;5068698;28;20373;-79
2022/09/11 07:57:46;;;;;;;;;;;;;;;15.24;45.57;100504.50;5016856;28;19929;-78
2022/09/11 08:00:15;;;;;;;;;;;;;;;15.05;45.18;100506.34;5054792;28;19925;-77
2022/09/11 08:02:47;;;;;;;;;;;;;;;15.10;46.01;100506.31;5026489;28;20071;-79
2022/09/11 08:05:23;;;;;;;;;;;;;;;15.15;46.11;100497.53;5065718;28;20312;-79
2022/09/11 08:07:50;;;;;;;;;;;;;;;15.10;46.15;100493.16;5034332;28;20019;-77
2022/09/11 08:10:22;;;;;;;;;;;;;;;15.04;45.85;100499.34;5051819;28;19932;-78
2022/09/11 08:12:55;;;;;;;;;;;;;;;14.94;45.69;100497.63;5035230;28;19928;-80
2022/09/11 08:15:30;;;;;;;;;;;;;;;14.97;45.86;100495.00;5034525;28;19929;-77
2022/09/11 08:18:01;;;;;;;;;;;;;;;14.94;45.18;100493.22;5051191;28;19924;-79
2022/09/11 08:20:30;;;;;;;;;;;;;;;14.94;45.61;100481.84;5034679;28;20046;-77
2022/09/11 08:22:57;;;;;;;;;;;;;;;15.11;45.59;100481.75;5052250;28;19925;-82
2022/09/11 08:25:24;;;;;;;;;;;;;;;15.38;45.13;100486.00;5033473;28;19928;-78
2022/09/11 08:27:54;;;;;;;;;;;;;;;15.56;44.48;100477.09;5033914;28;20019;-79
2022/09/11 08:30:22;;;;;;;;;;;;;;;15.73;43.83;100469.09;5037636;28;19924;-80
2022/09/11 08:32:51;;;;;;;;;;;;;;;15.79;43.23;100463.78;5055807;28;19978;-79
2022/09/11 08:35:19;;;;;;;;;;;;;;;15.86;43.04;100462.84;5037478;28;20286;-80
2022/09/11 08:37:46;;;;;;;;;;;;;;;15.97;42.73;100458.34;5037919;28;19924;-79
2022/09/11 08:40:20;;;;;;;;;;;;;;;16.12;42.42;100462.59;5037745;28;20381;-79
2022/09/11 08:42:47;;;;;;;;;;;;;;;16.15;41.51;100456.41;5037635;28;19935;-81
2022/09/11 08:45:17;;;;;;;;;;;;;;;16.18;41.82;100457.25;5036748;28;20023;-81
2022/09/11 08:47:48;;;;;;;;;;;;;;;16.27;41.45;100453.66;5034397;28;19925;-78
2022/09/11 08:50:22;;;;;;;;;;;;;;;16.36;41.18;100450.91;5027453;28;19925;-79
2022/09/11 08:52:50;;;;;;;;;;;;;;;16.36;40.91;100436.84;5054528;28;19924;-79
2022/09/11 08:55:42;;;;;;;;;;;;;;;16.23;40.86;100438.75;5037753;28;19925;-82
2022/09/11 08:58:31;;;;;;;;;;;;;;;16.16;40.84;100437.09;5055377;28;20027;-79
2022/09/11 09:01:08;;;;;;;;;;;;;;;16.16;40.93;100432.69;5063936;28;19925;-80
2022/09/11 09:03:45;;;;;;;;;;;;;;;16.28;40.63;100434.31;5041069;28;19929;-79
2022/09/11 09:06:23;;;;;;;;;;;;;;;16.35;40.99;100440.41;5038095;28;19925;-77
2022/09/11 09:08:59;;;;;;;;;;;;;;;16.45;40.35;100433.25;5055274;28;19925;-79
2022/09/11 09:11:38;;;;;;;;;;;;;;;16.49;40.21;100429.69;5037753;28;19925;-80
2022/09/11 09:14:41;;;;;;;;;;;;;;;16.62;39.50;100433.91;5054082;28;19931;-81
2022/09/11 09:17:18;;;;;;;;;;;;;;;16.66;38.84;100432.97;4989314;28;19988;-80
2022/09/11 09:19:48;;;;;;;;;;;;;;;16.67;38.16;100440.03;5028544;28;19925;-79
2022/09/11 09:22:23;;;;;;;;;;;;;;;16.74;38.75;100440.81;5031739;28;19925;-80
2022/09/11 09:24:59;;;;;;;;;;;;;;;16.73;38.02;100428.50;5037396;28;19935;-79
2022/09/11 09:27:41;;;;;;;;;;;;;;;16.90;38.24;100431.81;5038966;28;20392;-79
2022/09/11 09:30:17;;;;;;;;;;;;;;;17.03;37.82;100421.97;5054985;28;19924;-77
2022/09/11 09:32:49;;;;;;;;;;;;;;;17.06;38.16;100429.84;5020019;28;20312;-79
2022/09/11 09:35:25;;;;;;;;;;;;;;;17.13;38.34;100420.94;5036994;28;19924;-79
2022/09/11 09:37:53;;;;;;;;;;;;;;;17.12;38.17;100419.22;5037636;28;19924;-78
2022/09/11 09:40:23;;;;;;;;;;;;;;;17.27;38.08;100425.13;5036259;28;19925;-76
2022/09/11 09:42:50;;;;;;;;;;;;;;;17.35;37.78;100428.53;5070174;28;19936;-79
2022/09/11 09:45:23;;;;;;;;;;;;;;;17.23;37.94;100419.06;5054405;28;19925;-78
2022/09/11 09:47:50;;;;;;;;;;;;;;;17.34;38.02;100417.13;5054496;28;19951;-78
2022/09/11 09:50:30;;;;;;;;;;;;;;;17.45;37.75;100416.94;5054686;28;19924;-78
2022/09/11 09:53:16;;;;;;;;;;;;;;;17.49;37.99;100426.56;5037443;28;20085;-80
2022/09/11 09:55:46;;;;;;;;;;;;;;;17.47;37.90;100416.94;5034530;28;19971;-79
2022/09/11 09:58:13;;;;;;;;;;;;;;;17.45;37.57;100419.59;5033687;28;19925;-79
2022/09/11 10:00:40;;;;;;;;;;;;;;;17.35;37.97;100431.19;5051869;28;19925;-78
2022/09/11 10:03:19;;;;;;;;;;;;;;;17.37;38.11;100421.47;5019871;28;19925;-81
2022/09/11 10:05:47;;;;;;;;;;;;;;;17.20;37.15;100425.22;5052866;28;19924;-79
2022/09/11 10:08:47;;;;;;;;;;;;;;;17.12;37.77;100424.50;5035806;28;19975;-77
2022/09/11 10:11:15;;;;;;;;;;;;;;;17.18;37.64;100426.16;5011060;28;19925;-78
2022/09/11 10:13:51;;;;;;;;;;;;;;;17.13;37.59;100428.00;5053886;28;19931;-78
2022/09/11 10:16:20;;;;;;;;;;;;;;;17.16;37.76;100427.94;5054173;28;19931;-79
2022/09/11 10:18:47;;;;;;;;;;;;;;;17.16;37.52;100423.56;5053812;28;19979;-80
2022/09/11 10:21:14;;;;;;;;;;;;;;;17.01;37.40;100420.25;5054255;28;19931;-79
2022/09/11 10:23:46;;;;;;;;;;;;;;;16.81;37.22;100416.13;5054115;28;20385;-80
2022/09/11 10:26:15;;;;;;;;;;;;;;;16.71;37.31;100419.72;5036314;28;19931;-80
2022/09/11 10:28:42;;;;;;;;;;;;;;;16.57;37.38;100414.66;5036080;28;19934;-80
2022/09/11 10:31:12;;;;;;;;;;;;;;;16.61;37.69;100418.13;5052775;28;19932;-78
2022/09/11 10:33:40;;;;;;;;;;;;;;;16.64;37.56;100407.53;5030156;28;19932;-78
2022/09/11 10:36:08;;;;;;;;;;;;;;;16.60;37.62;100414.59;5038047;28;19932;-80
2022/09/11 10:38:44;;;;;;;;;;;;;;;16.55;37.48;100414.66;5033921;28;20031;-79
2022/09/11 10:41:13;;;;;;;;;;;;;;;16.51;37.61;100409.44;5034128;28;19935;-81
2022/09/11 10:43:43;;;;;;;;;;;;;;;16.48;37.74;100410.34;5034337;28;19925;-77
2022/09/11 10:46:16;;;;;;;;;;;;;;;16.50;37.59;100405.94;5035504;28;19925;-82
2022/09/11 10:49:07;;;;;;;;;;;;;;;16.48;37.57;100401.59;5053910;28;19930;-80
2022/09/11 10:51:36;;;;;;;;;;;;;;;16.42;37.23;100399.03;5042272;28;19962;-78
2022/09/11 10:54:09;;;;;;;;;;;;;;;16.35;37.24;100399.09;5045045;28;20454;-78
2022/09/11 10:56:43;;;;;;;;;;;;;;;16.43;37.19;100390.19;5053688;28;19928;-79
2022/09/11 10:59:17;;;;;;;;;;;;;;;16.52;37.19;100392.72;5043446;28;19960;-80
2022/09/11 11:01:44;;;;;;;;;;;;;;;16.63;37.12;100390.84;5044050;28;19925;-81
2022/09/11 11:04:11;;;;;;;;;;;;;;;16.86;37.03;100387.91;5022509;28;20308;-81
2022/09/11 11:06:44;;;;;;;;;;;;;;;16.89;36.79;100395.78;5042473;28;19924;-83
2022/09/11 11:09:29;;;;;;;;;;;;;;;17.04;36.79;100386.78;5043194;28;20295;-79
2022/09/11 11:11:59;;;;;;;;;;;;;;;17.29;36.89;100386.38;5041248;28;20020;-81
2022/09/11 11:14:42;;;;;;;;;;;;;;;17.47;36.69;100385.25;5020790;28;20008;-79
2022/09/11 11:17:28;;;;;;;;;;;;;;;17.60;36.45;100384.13;5042767;28;19929;-78
2022/09/11 11:20:02;;;;;;;;;;;;;;;17.61;36.01;100370.00;5042772;28;20032;-77
2022/09/11 11:22:30;;;;;;;;;;;;;;;17.63;36.06;100370.84;5042059;28;19932;-78
2022/09/11 11:25:18;;;;;;;;;;;;;;;17.72;36.23;100375.97;5040462;28;19983;-77
2022/09/11 11:27:50;;;;;;;;;;;;;;;17.86;35.81;100366.97;5041059;28;20369;-79
2022/09/11 11:30:19;;;;;;;;;;;;;;;17.93;35.74;100376.53;5040535;28;19960;-77
2022/09/11 11:33:11;;;;;;;;;;;;;;;17.77;35.63;100368.84;5024992;28;19948;-78
2022/09/11 11:35:49;;;;;;;;;;;;;;;17.72;36.05;100369.81;5048579;28;19924;-77
2022/09/11 11:38:27;;;;;;;;;;;;;;;17.74;35.93;100365.38;5039899;28;20300;-77
2022/09/11 11:40:58;;;;;;;;;;;;;;;17.66;35.96;100362.88;5048878;28;19925;-77
2022/09/11 11:43:27;;;;;;;;;;;;;;;17.94;36.06;100365.03;5047348;28;19964;-77
2022/09/11 11:46:03;;;;;;;;;;;;;;;18.23;35.82;100366.25;5050910;28;20020;-76
2022/09/11 11:48:52;;;;;;;;;;;;;;;18.33;35.62;100358.09;5053140;28;20027;-78
2022/09/11 11:51:27;;;;;;;;;;;;;;;18.25;35.32;100356.53;5052807;28;19931;-80
2022/09/11 11:53:58;;;;;;;;;;;;;;;18.34;35.61;100351.03;5052918;28;19932;-80
2022/09/11 11:56:32;;;;;;;;;;;;;;;18.40;35.21;100348.28;5041073;28;19925;-78
2022/09/11 11:59:02;;;;;;;;;;;;;;;18.32;35.08;100353.69;5050359;28;19963;-79
2022/09/11 12:01:39;;;;;;;;;;;;;;;18.21;35.32;100350.41;5052594;28;20392;-78
2022/09/11 12:04:09;;;;;;;;;;;;;;;18.27;35.51;100341.50;5035217;28;20470;-79
2022/09/11 12:06:36;;;;;;;;;;;;;;;18.26;35.31;100342.38;5056278;28;19944;-79
2022/09/11 12:09:04;;;;;;;;;;;;;;;18.14;35.29;100346.16;5056357;28;19968;-78
2022/09/11 12:11:33;;;;;;;;;;;;;;;18.12;35.27;100345.31;5056756;28;20023;-78
2022/09/11 12:14:01;;;;;;;;;;;;;;;18.13;35.39;100342.66;5056162;28;19932;-82
2022/09/11 12:16:31;;;;;;;;;;;;;;;18.06;35.37;100342.78;5022029;28;20142;-80
2022/09/11 12:19:00;;;;;;;;;;;;;;;18.02;35.96;100339.34;5022401;28;19940;-81
2022/09/11 12:21:30;;;;;;;;;;;;;;;18.02;35.56;100341.97;5039855;28;19930;-81
2022/09/11 12:23:58;;;;;;;;;;;;;;;17.97;35.67;100328.84;5022953;28;19960;-80
2022/09/11 12:26:26;;;;;;;;;;;;;;;17.92;35.84;100325.44;5028888;28;19947;-78
2022/09/11 12:29:14;;;;;;;;;;;;;;;17.80;35.83;100329.16;5047848;28;19940;-80
2022/09/11 12:31:47;;;;;;;;;;;;;;;17.88;36.09;100334.31;5048914;28;20347;-79
2022/09/11 12:34:16;;;;;;;;;;;;;;;18.00;35.92;100336.75;5058659;28;20027;-78
2022/09/11 12:36:56;;;;;;;;;;;;;;;18.03;36.02;100330.53;5056179;28;19928;-79
2022/09/11 12:39:33;;;;;;;;;;;;;;;18.01;36.01;100329.69;5055422;28;19932;-79
2022/09/11 12:42:35;;;;;;;;;;;;;;;17.98;36.20;100322.69;5056274;28;20062;-79
2022/09/11 12:45:03;;;;;;;;;;;;;;;18.01;36.36;100314.69;5010239;28;19910;-80
2022/09/11 12:47:38;;;;;;;;;;;;;;;17.99;36.33;100324.41;5044849;28;20350;-79
2022/09/11 12:50:05;;;;;;;;;;;;;;;17.87;36.45;100321.13;5055293;28;19924;-79
2022/09/11 12:52:53;;;;;;;;;;;;;;;17.87;36.54;100323.78;5055189;28;20356;-78
2022/09/11 12:55:26;;;;;;;;;;;;;;;17.83;36.49;100316.81;5054308;28;19924;-79
2022/09/11 12:57:53;;;;;;;;;;;;;;;17.75;36.52;100322.22;5054978;28;19951;-77
2022/09/11 13:00:22;;;;;;;;;;;;;;;17.77;36.52;100310.72;5055200;28;19925;-80
2022/09/11 13:02:52;;;;;;;;;;;;;;;17.83;36.62;100309.75;5054928;28;19964;-79